Time;durP1;ratioP1;P1;durP2;ratioP2;P2;SDS_P1;SDS_P2;PMS_P1;PMS_P2;Temp;Humidity;BMP_temperature;BMP_pressure;BME280_temperature;BME280_humidity;BME280_pressure;Samples;Min_cycle;Max_cycle;Signal;HPM_P1;HPM_P2
2022/01/28 00:00:13;;;;;;;;;;;;;;;-6.40;93.91;99618.13;5096172;28;19924;-65
2022/01/28 00:02:55;;;;;;;;;;;;;;;-6.49;94.55;99620.72;5094168;28;19967;-64
2022/01/28 00:05:22;;;;;;;;;;;;;;;-6.51;94.15;99617.34;5093626;28;20061;-65
2022/01/28 00:07:48;;;;;;;;;;;;;;;-6.40;93.80;99625.72;5093806;28;19985;-66
2022/01/28 00:10:15;;;;;;;;;;;;;;;-6.46;93.93;99620.69;5095364;28;19931;-65
2022/01/28 00:13:02;;;;;;;;;;;;;;;-6.39;94.26;99629.94;5095268;28;19939;-64
2022/01/28 00:15:33;;;;;;;;;;;;;;;-6.28;93.43;99639.19;5108001;22;19962;-70
2022/01/28 00:36:26;;;;;;;;;;;;;;;-6.27;93.52;99634.09;5061571;28;19924;-70
2022/01/28 00:40:18;;;;;;;;;;;;;;;-6.41;93.34;99649.34;5094410;28;19923;-68
2022/01/28 00:42:45;;;;;;;;;;;;;;;-6.20;92.68;99655.19;5115094;28;19931;-70
2022/01/28 00:45:12;;;;;;;;;;;;;;;-6.17;92.55;99652.63;5115316;28;19931;-69
2022/01/28 00:47:38;;;;;;;;;;;;;;;-6.24;92.21;99640.84;5115347;28;19923;-69
2022/01/28 00:50:07;;;;;;;;;;;;;;;-6.13;92.04;99649.25;5115272;28;19931;-69
2022/01/28 00:52:34;;;;;;;;;;;;;;;-6.03;91.42;99645.81;5114971;28;19928;-69
2022/01/28 00:55:00;;;;;;;;;;;;;;;-6.13;91.67;99652.63;5115105;28;19932;-67
2022/01/28 00:57:27;;;;;;;;;;;;;;;-6.26;92.65;99656.06;5115192;28;19924;-69
2022/01/28 00:59:53;;;;;;;;;;;;;;;-6.28;92.60;99659.44;5115260;28;19928;-69
2022/01/28 01:02:20;;;;;;;;;;;;;;;-6.39;93.38;99667.91;5114946;28;19930;-69
2022/01/28 01:04:47;;;;;;;;;;;;;;;-6.46;93.87;99671.31;5114768;28;19928;-69
2022/01/28 01:07:15;;;;;;;;;;;;;;;-6.51;94.51;99670.47;5114969;28;19931;-69
2022/01/28 01:09:41;;;;;;;;;;;;;;;-6.51;94.44;99669.66;5114967;28;19930;-69
2022/01/28 01:12:10;;;;;;;;;;;;;;;-6.57;94.16;99673.03;5114993;28;19923;-69
2022/01/28 01:14:37;;;;;;;;;;;;;;;-6.40;93.76;99675.50;5121764;22;19977;-64
2022/01/28 01:17:15;;;;;;;;;;;;;;;-6.24;93.05;99678.81;5094298;28;19924;-64
2022/01/28 01:19:47;;;;;;;;;;;;;;;-6.39;93.79;99680.56;5094340;28;19924;-65
2022/01/28 01:22:15;;;;;;;;;;;;;;;-6.42;93.25;99685.66;5094247;28;19925;-64
2022/01/28 01:24:48;;;;;;;;;;;;;;;-6.50;94.00;99687.34;5094292;28;19932;-64
2022/01/28 01:27:15;;;;;;;;;;;;;;;-6.31;93.63;99692.38;5094480;28;20026;-64
2022/01/28 01:29:44;;;;;;;;;;;;;;;-6.29;93.69;99686.47;5094152;28;19930;-63
2022/01/28 01:32:14;;;;;;;;;;;;;;;-6.45;93.59;99695.75;5093971;28;19924;-64
2022/01/28 01:34:41;;;;;;;;;;;;;;;-6.71;94.70;99702.59;5093998;28;20015;-64
2022/01/28 01:37:08;;;;;;;;;;;;;;;-6.50;93.97;99705.06;5093858;28;20378;-64
2022/01/28 01:39:37;;;;;;;;;;;;;;;-6.50;93.89;99707.59;5094062;28;19924;-65
2022/01/28 01:42:12;;;;;;;;;;;;;;;-6.50;93.75;99699.16;5094035;28;20405;-64
2022/01/28 01:45:10;;;;;;;;;;;;;;;-6.47;93.57;99702.53;5093939;28;20027;-63
2022/01/28 01:53:09;;;;;;;;;;;;;;;-6.49;94.26;99713.50;5011622;28;20498;-64
2022/01/28 01:55:37;;;;;;;;;;;;;;;-6.45;94.20;99712.63;5010804;28;19926;-68
2022/01/28 01:58:03;;;;;;;;;;;;;;;-6.55;94.21;99704.25;5047375;28;19924;-64
2022/01/28 02:00:30;;;;;;;;;;;;;;;-6.55;94.05;99710.97;5093577;28;20407;-64
2022/01/28 02:02:56;;;;;;;;;;;;;;;-6.58;93.92;99709.28;5093683;28;19928;-68
2022/01/28 02:05:23;;;;;;;;;;;;;;;-6.52;93.92;99708.44;5093253;28;19924;-67
2022/01/28 02:07:49;;;;;;;;;;;;;;;-6.55;94.15;99710.97;5093399;28;19954;-65
2022/01/28 02:10:16;;;;;;;;;;;;;;;-6.46;93.61;99719.41;5093424;28;19924;-63
2022/01/28 02:12:48;;;;;;;;;;;;;;;-6.63;93.91;99724.50;5093497;28;20392;-67
2022/01/28 02:15:15;;;;;;;;;;;;;;;-6.35;93.43;99721.91;5093655;28;19924;-65
2022/01/28 02:17:41;;;;;;;;;;;;;;;-6.50;93.46;99724.47;5093264;28;19931;-64
2022/01/28 02:20:12;;;;;;;;;;;;;;;-6.55;93.07;99724.50;5093132;28;19924;-67
2022/01/28 02:22:40;;;;;;;;;;;;;;;-6.55;93.37;99724.50;5092979;28;19924;-66
2022/01/28 02:25:07;;;;;;;;;;;;;;;-6.62;93.10;99730.41;5093009;28;19931;-65
2022/01/28 02:27:33;;;;;;;;;;;;;;;-6.51;92.92;99731.22;5093464;28;19931;-64
2022/01/28 02:30:00;;;;;;;;;;;;;;;-6.64;92.40;99732.09;5092809;28;19924;-64
2022/01/28 02:32:26;;;;;;;;;;;;;;;-6.82;93.50;99735.47;5092767;28;20290;-64
2022/01/28 02:34:53;;;;;;;;;;;;;;;-6.74;93.39;99738.00;5092989;28;20278;-64
2022/01/28 02:37:20;;;;;;;;;;;;;;;-6.59;92.29;99740.53;5092963;28;19924;-65
2022/01/28 02:39:48;;;;;;;;;;;;;;;-6.59;92.10;99740.53;5093334;28;20358;-67
2022/01/28 02:42:20;;;;;;;;;;;;;;;-6.52;92.09;99748.94;5092806;28;19932;-70
2022/01/28 02:44:49;;;;;;;;;;;;;;;-6.83;93.53;99752.34;5092943;28;20290;-64
2022/01/28 02:47:28;;;;;;;;;;;;;;;-6.89;93.78;99754.03;5093029;28;19931;-70
2022/01/28 02:49:54;;;;;;;;;;;;;;;-6.80;93.34;99759.94;5092749;28;19927;-70
2022/01/28 02:52:30;;;;;;;;;;;;;;;-6.80;92.95;99762.47;5092666;28;20282;-64
2022/01/28 02:54:59;;;;;;;;;;;;;;;-6.91;93.74;99763.28;5092851;28;19924;-65
2022/01/28 02:57:27;;;;;;;;;;;;;;;-7.02;93.95;99769.19;5092774;28;19924;-63
2022/01/28 02:59:54;;;;;;;;;;;;;;;-6.79;93.32;99776.78;5092804;28;19924;-64
2022/01/28 03:02:20;;;;;;;;;;;;;;;-7.01;93.67;99772.59;5092683;28;20362;-63
2022/01/28 03:07:30;;;;;;;;;;;;;;;-6.96;93.69;99780.16;5094337;28;19928;-64
2022/01/28 03:13:13;;;;;;;;;;;;;;;-7.08;94.02;99789.44;5131194;27;19916;-64
2022/01/28 03:15:41;;;;;;;;;;;;;;;-7.20;95.46;99793.63;5131335;28;19973;-64
2022/01/28 03:18:14;;;;;;;;;;;;;;;-7.28;95.02;99807.09;5131050;28;19936;-64
2022/01/28 03:20:44;;;;;;;;;;;;;;;-7.31;95.05;99808.78;5131046;28;20484;-66
2022/01/28 03:23:11;;;;;;;;;;;;;;;-7.30;95.66;99802.88;5130947;28;19932;-65
2022/01/28 03:25:42;;;;;;;;;;;;;;;-7.21;95.38;99805.44;5130850;28;20320;-77
2022/01/28 03:28:11;;;;;;;;;;;;;;;-7.29;94.62;99799.53;5131091;28;19927;-69
2022/01/28 03:30:37;;;;;;;;;;;;;;;-7.16;93.63;99802.91;5130595;28;20018;-68
2022/01/28 03:33:04;;;;;;;;;;;;;;;-7.32;94.78;99791.91;5130542;28;19924;-64
2022/01/28 03:35:31;;;;;;;;;;;;;;;-7.35;95.33;99799.47;5130583;28;20373;-64
2022/01/28 03:38:00;;;;;;;;;;;;;;;-7.23;94.44;99800.34;5130509;28;19931;-65
2022/01/28 03:40:26;;;;;;;;;;;;;;;-7.30;94.25;99802.88;5130618;28;19976;-72
2022/01/28 03:42:53;;;;;;;;;;;;;;;-7.23;94.37;99810.47;5130543;28;19934;-65
2022/01/28 03:45:21;;;;;;;;;;;;;;;-7.24;94.42;99800.38;5130404;28;19955;-70
2022/01/28 03:47:48;;;;;;;;;;;;;;;-7.24;94.35;99805.44;5130387;28;19931;-70
2022/01/28 03:50:14;;;;;;;;;;;;;;;-7.14;93.27;99807.13;5130398;28;20386;-74
2022/01/28 03:52:41;;;;;;;;;;;;;;;-7.31;94.26;99801.19;5130371;28;20413;-64
2022/01/28 03:55:08;;;;;;;;;;;;;;;-7.18;93.85;99804.59;5130356;28;19946;-65
2022/01/28 03:57:34;;;;;;;;;;;;;;;-7.28;93.79;99803.72;5130209;28;20293;-68
2022/01/28 04:00:01;;;;;;;;;;;;;;;-7.07;93.56;99810.50;5130264;28;19946;-66
2022/01/28 04:02:32;;;;;;;;;;;;;;;-7.09;93.22;99815.56;5130097;28;19923;-64
2022/01/28 04:05:52;;;;;;;;;;;;;;;-7.19;94.37;99816.41;5129859;28;19924;-64
2022/01/28 04:13:25;;;;;;;;;;;;;;;-7.18;93.44;99813.00;5130064;28;19976;-70
2022/01/28 04:16:14;;;;;;;;;;;;;;;-7.10;93.49;99821.44;5130366;28;20431;-70
2022/01/28 04:18:39;;;;;;;;;;;;;;;-7.31;93.92;99809.63;5129636;28;20419;-64
2022/01/28 04:21:06;;;;;;;;;;;;;;;-7.34;94.25;99816.34;5129725;28;19924;-65
2022/01/28 04:23:33;;;;;;;;;;;;;;;-7.38;94.39;99820.53;5119940;28;19924;-73
2022/01/28 04:25:59;;;;;;;;;;;;;;;-7.13;93.29;99820.63;5115832;28;19935;-71
2022/01/28 04:28:26;;;;;;;;;;;;;;;-7.24;93.90;99826.50;5116019;28;19924;-67
2022/01/28 04:30:52;;;;;;;;;;;;;;;-7.25;94.48;99826.47;5115880;28;19931;-72
2022/01/28 04:33:19;;;;;;;;;;;;;;;-7.29;94.57;99828.16;5115712;28;20410;-70
2022/01/28 04:35:50;;;;;;;;;;;;;;;-7.35;94.03;99840.75;5116238;28;19947;-71
2022/01/28 04:38:28;;;;;;;;;;;;;;;-7.35;93.78;99855.94;5115421;28;19924;-67
2022/01/28 04:41:04;;;;;;;;;;;;;;;-7.31;94.14;99851.75;5115941;28;20014;-68
2022/01/28 04:43:36;;;;;;;;;;;;;;;-7.36;94.42;99859.31;5115515;28;19923;-68
2022/01/28 04:46:09;;;;;;;;;;;;;;;-7.24;92.86;99873.69;5115593;28;19927;-67
2022/01/28 04:48:41;;;;;;;;;;;;;;;-7.36;93.34;99871.94;5115538;28;19924;-65
2022/01/28 04:51:18;;;;;;;;;;;;;;;-7.45;93.62;99872.75;5115610;28;20010;-68
2022/01/28 04:53:58;;;;;;;;;;;;;;;-7.37;93.71;99872.78;5115628;28;19935;-69
2022/01/28 04:56:41;;;;;;;;;;;;;;;-7.31;93.66;99871.97;5115456;28;20392;-63
2022/01/28 04:59:29;;;;;;;;;;;;;;;-7.33;93.57;99883.75;5115109;28;20385;-64
2022/01/28 05:04:53;;;;;;;;;;;;;;;-7.38;93.40;99882.88;5115189;28;20016;-64
2022/01/28 05:13:15;;;;;;;;;;;;;;;-7.40;93.28;99885.41;5114557;28;19930;-67
2022/01/28 05:16:17;;;;;;;;;;;;;;;-7.42;93.30;99873.59;5115237;28;19924;-65
2022/01/28 05:26:57;;;;;;;;;;;;;;;-7.60;94.81;99889.50;5114823;28;19934;-64
2022/01/28 05:29:24;;;;;;;;;;;;;;;-7.48;94.09;99898.00;5114398;28;20389;-67
2022/01/28 05:31:51;;;;;;;;;;;;;;;-7.33;93.41;99902.28;5114553;28;19975;-67
2022/01/28 05:34:17;;;;;;;;;;;;;;;-7.26;92.44;99900.63;5113673;28;19931;-64
2022/01/28 05:36:44;;;;;;;;;;;;;;;-7.51;93.50;99910.63;5114488;28;19970;-64
2022/01/28 05:39:12;;;;;;;;;;;;;;;-7.56;93.95;99906.38;5114488;28;20382;-64
2022/01/28 05:41:39;;;;;;;;;;;;;;;-7.33;93.16;99906.50;5114393;28;19924;-68
2022/01/28 05:44:06;;;;;;;;;;;;;;;-7.55;94.18;99910.59;5114277;28;19923;-65
2022/01/28 05:46:32;;;;;;;;;;;;;;;-7.37;93.58;99912.38;5114380;28;20400;-68
2022/01/28 05:48:59;;;;;;;;;;;;;;;-7.50;93.21;99912.31;5114498;28;19924;-64
2022/01/28 05:51:26;;;;;;;;;;;;;;;-7.48;93.09;99924.94;5114088;28;19931;-82
2022/01/28 05:53:53;;;;;;;;;;;;;;;-7.54;94.00;99920.72;5114077;28;20309;-64
2022/01/28 05:56:23;;;;;;;;;;;;;;;-7.55;94.42;99924.09;5114203;28;19924;-65
2022/01/28 05:58:50;;;;;;;;;;;;;;;-7.35;93.15;99923.31;5114252;28;19931;-67
2022/01/28 06:01:17;;;;;;;;;;;;;;;-7.39;93.25;99929.22;5114216;28;19924;-71
2022/01/28 06:03:44;;;;;;;;;;;;;;;-7.37;92.82;99933.44;5113993;28;19947;-64
2022/01/28 06:06:18;;;;;;;;;;;;;;;-7.35;93.33;99929.22;5114077;28;19930;-67
2022/01/28 06:08:44;;;;;;;;;;;;;;;-7.49;93.80;99933.38;5113893;28;19936;-70
2022/01/28 06:11:11;;;;;;;;;;;;;;;-7.50;93.79;99935.06;5113850;28;19982;-65
2022/01/28 06:13:39;;;;;;;;;;;;;;;-7.46;93.75;99939.28;5113908;28;19931;-65
2022/01/28 06:16:05;;;;;;;;;;;;;;;-7.40;92.65;99938.47;5114699;28;20089;-69
2022/01/28 06:18:32;;;;;;;;;;;;;;;-7.39;92.43;99936.81;5114104;28;19924;-67
2022/01/28 06:20:59;;;;;;;;;;;;;;;-7.31;93.56;99941.03;5114102;28;19923;-64
2022/01/28 06:23:25;;;;;;;;;;;;;;;-7.49;93.25;99936.75;5113643;28;19935;-64
2022/01/28 06:25:52;;;;;;;;;;;;;;;-7.61;93.96;99939.19;5113692;28;19924;-64
2022/01/28 06:28:18;;;;;;;;;;;;;;;-7.46;93.20;99951.09;5113730;28;19924;-68
2022/01/28 06:30:46;;;;;;;;;;;;;;;-7.30;92.86;99954.53;5113386;28;19931;-71
2022/01/28 06:33:13;;;;;;;;;;;;;;;-7.19;92.73;99957.97;5113372;28;20374;-66
2022/01/28 06:35:40;;;;;;;;;;;;;;;-7.08;91.97;99952.94;5113371;28;20377;-64
2022/01/28 06:38:07;;;;;;;;;;;;;;;-7.33;93.10;99957.03;5113272;28;19927;-63
2022/01/28 06:40:33;;;;;;;;;;;;;;;-7.43;93.51;99960.34;5113722;28;19923;-73
2022/01/28 06:43:00;;;;;;;;;;;;;;;-7.54;94.17;99965.34;5113563;28;19931;-64
2022/01/28 06:45:26;;;;;;;;;;;;;;;-7.32;92.97;99967.19;5112970;28;19928;-63
2022/01/28 06:47:54;;;;;;;;;;;;;;;-7.35;93.15;99973.88;5113373;28;20362;-63
2022/01/28 06:50:21;;;;;;;;;;;;;;;-7.40;94.11;99978.91;5113405;28;20297;-71
2022/01/28 06:52:48;;;;;;;;;;;;;;;-7.27;93.21;99974.75;5113269;28;19931;-64
2022/01/28 06:55:16;;;;;;;;;;;;;;;-7.36;93.51;99979.78;5113292;28;19931;-63
2022/01/28 06:57:43;;;;;;;;;;;;;;;-7.39;93.63;99973.03;5113289;28;19923;-64
2022/01/28 07:00:10;;;;;;;;;;;;;;;-7.41;94.08;99982.28;5113291;28;20396;-65
2022/01/28 07:02:37;;;;;;;;;;;;;;;-7.38;94.05;99991.56;5110716;28;19924;-64
2022/01/28 07:05:06;;;;;;;;;;;;;;;-7.37;94.24;99996.63;5109395;28;19924;-68
2022/01/28 07:07:33;;;;;;;;;;;;;;;-7.41;94.38;99999.13;5111936;28;19923;-64
2022/01/28 07:10:00;;;;;;;;;;;;;;;-7.27;93.80;100005.97;5111306;28;19923;-65
2022/01/28 07:12:27;;;;;;;;;;;;;;;-7.10;92.63;100013.59;5111494;28;19927;-64
2022/01/28 07:14:54;;;;;;;;;;;;;;;-7.16;92.73;100012.75;5112620;28;19924;-63
2022/01/28 07:17:21;;;;;;;;;;;;;;;-7.21;92.87;100017.78;5112087;28;19924;-64
2022/01/28 07:19:47;;;;;;;;;;;;;;;-7.20;92.88;100019.47;5110802;28;20305;-64
2022/01/28 07:22:15;;;;;;;;;;;;;;;-7.31;93.91;100021.09;5112075;28;19923;-65
2022/01/28 07:24:42;;;;;;;;;;;;;;;-7.36;93.40;100023.59;5111019;28;20378;-64
2022/01/28 07:27:09;;;;;;;;;;;;;;;-7.02;92.05;100022.06;5110763;28;19927;-63
2022/01/28 07:29:35;;;;;;;;;;;;;;;-7.03;92.19;100027.97;5112818;28;19946;-64
2022/01/28 07:32:02;;;;;;;;;;;;;;;-7.04;92.42;100033.88;5112484;28;19931;-64
2022/01/28 07:34:29;;;;;;;;;;;;;;;-7.18;93.15;100030.44;5112614;28;19928;-67
2022/01/28 07:36:55;;;;;;;;;;;;;;;-7.27;93.48;100038.81;5112650;28;19924;-67
2022/01/28 07:39:23;;;;;;;;;;;;;;;-7.31;93.83;100034.56;5112619;28;20293;-67
2022/01/28 07:41:50;;;;;;;;;;;;;;;-6.99;92.69;100043.16;5112686;28;19927;-68
2022/01/28 07:44:16;;;;;;;;;;;;;;;-7.12;93.19;100047.31;5112641;28;19924;-68
2022/01/28 07:46:43;;;;;;;;;;;;;;;-7.17;93.65;100059.09;5112845;28;19931;-67
2022/01/28 07:49:10;;;;;;;;;;;;;;;-7.02;92.39;100059.16;5112585;28;20382;-67
2022/01/28 07:51:36;;;;;;;;;;;;;;;-7.22;93.49;100061.56;5112668;28;20309;-68
2022/01/28 07:54:03;;;;;;;;;;;;;;;-6.97;92.58;100070.16;5112489;28;19924;-68
2022/01/28 07:56:31;;;;;;;;;;;;;;;-7.16;93.51;100078.50;5112354;28;19928;-67
2022/01/28 07:58:58;;;;;;;;;;;;;;;-6.91;92.28;100080.31;5115155;28;19924;-67
2022/01/28 08:01:24;;;;;;;;;;;;;;;-6.90;92.36;100078.63;5116856;28;19937;-67
2022/01/28 08:03:51;;;;;;;;;;;;;;;-6.94;92.63;100085.34;5116492;28;19931;-68
2022/01/28 08:06:18;;;;;;;;;;;;;;;-6.91;92.77;100075.25;5116357;28;19928;-67
2022/01/28 08:08:44;;;;;;;;;;;;;;;-7.02;92.95;100080.25;5116258;28;19931;-67
2022/01/28 08:11:11;;;;;;;;;;;;;;;-7.10;93.60;100084.41;5116255;28;19923;-67
2022/01/28 08:13:39;;;;;;;;;;;;;;;-7.08;93.40;100090.34;5116177;28;19959;-67
2022/01/28 08:16:06;;;;;;;;;;;;;;;-7.08;93.90;100092.84;5116755;28;19931;-67
2022/01/28 08:18:32;;;;;;;;;;;;;;;-7.11;94.13;100094.53;5116267;28;20267;-67
2022/01/28 08:20:59;;;;;;;;;;;;;;;-6.92;93.56;100101.38;5116428;28;19931;-67
2022/01/28 08:23:26;;;;;;;;;;;;;;;-6.80;93.01;100098.06;5116037;28;19958;-67
2022/01/28 08:25:54;;;;;;;;;;;;;;;-6.85;92.54;100110.69;5115637;28;19930;-67
2022/01/28 08:28:20;;;;;;;;;;;;;;;-6.82;93.10;100105.66;5115938;28;19973;-67
2022/01/28 08:30:48;;;;;;;;;;;;;;;-6.86;93.03;100109.00;5115749;28;19931;-67
2022/01/28 08:33:15;;;;;;;;;;;;;;;-6.97;93.55;100110.63;5115505;28;19931;-68
2022/01/28 08:35:44;;;;;;;;;;;;;;;-6.85;93.35;100109.84;5115693;28;20401;-68
2022/01/28 08:38:15;;;;;;;;;;;;;;;-6.80;92.95;100113.25;5115820;28;19923;-68
2022/01/28 08:40:42;;;;;;;;;;;;;;;-6.57;92.31;100116.75;5115865;28;19923;-67
2022/01/28 08:43:09;;;;;;;;;;;;;;;-6.79;93.12;100104.81;5115524;28;19931;-67
2022/01/28 08:45:36;;;;;;;;;;;;;;;-6.80;92.91;100110.72;5115332;28;20389;-67
2022/01/28 08:48:04;;;;;;;;;;;;;;;-6.61;92.45;100114.19;5115517;28;19928;-67
2022/01/28 08:50:31;;;;;;;;;;;;;;;-6.79;92.54;100122.53;5115502;28;19932;-67
2022/01/28 08:52:57;;;;;;;;;;;;;;;-6.63;91.90;100124.31;5115344;28;20404;-67
2022/01/28 08:55:25;;;;;;;;;;;;;;;-6.54;91.74;100126.03;5115007;28;19923;-67
2022/01/28 08:57:53;;;;;;;;;;;;;;;-6.44;91.50;100129.44;5115244;28;20373;-68
2022/01/28 09:00:21;;;;;;;;;;;;;;;-6.54;91.69;100133.63;5115426;28;19923;-67
2022/01/28 09:02:48;;;;;;;;;;;;;;;-6.29;90.93;100129.50;5114999;28;19935;-67
2022/01/28 09:05:16;;;;;;;;;;;;;;;-6.44;90.87;100135.34;5115455;28;19931;-67
2022/01/28 09:07:43;;;;;;;;;;;;;;;-6.45;91.33;100135.34;5115413;28;19924;-67
2022/01/28 09:10:17;;;;;;;;;;;;;;;-6.35;91.12;100129.47;5115322;28;19924;-67
2022/01/28 09:12:49;;;;;;;;;;;;;;;-6.26;90.75;100136.28;5114865;28;19930;-68
2022/01/28 09:15:16;;;;;;;;;;;;;;;-6.05;89.26;100141.41;5115236;28;20358;-68
2022/01/28 09:17:43;;;;;;;;;;;;;;;-5.92;89.42;100140.53;5114915;28;19931;-68
2022/01/28 09:20:10;;;;;;;;;;;;;;;-6.00;89.15;100133.81;5114684;28;20378;-68
2022/01/28 09:22:38;;;;;;;;;;;;;;;-6.04;89.84;100138.00;5114946;28;19924;-68
2022/01/28 09:25:05;;;;;;;;;;;;;;;-5.98;89.52;100134.66;5114717;28;19928;-68
2022/01/28 09:27:31;;;;;;;;;;;;;;;-5.71;88.22;100141.44;5114784;28;19938;-68
2022/01/28 09:29:58;;;;;;;;;;;;;;;-5.88;89.22;100141.41;5114612;28;19927;-70
2022/01/28 09:32:25;;;;;;;;;;;;;;;-5.91;89.02;100137.19;5114359;28;19928;-68
2022/01/28 09:34:51;;;;;;;;;;;;;;;-6.15;90.49;100139.69;5114485;28;19924;-68
2022/01/28 09:37:18;;;;;;;;;;;;;;;-6.21;90.74;100135.44;5114717;28;19924;-69
2022/01/28 09:39:46;;;;;;;;;;;;;;;-6.25;90.85;100143.03;5114723;28;19923;-68
2022/01/28 09:42:15;;;;;;;;;;;;;;;-6.00;90.50;100128.75;5114454;28;19930;-68
2022/01/28 09:44:42;;;;;;;;;;;;;;;-6.00;90.97;100129.59;5114362;28;19934;-68
2022/01/28 09:47:10;;;;;;;;;;;;;;;-6.30;91.90;100140.47;5114577;28;19927;-68
2022/01/28 09:49:37;;;;;;;;;;;;;;;-6.15;91.65;100142.22;5094033;28;19931;-68
2022/01/28 09:52:04;;;;;;;;;;;;;;;-6.03;91.35;100139.72;5103672;28;19976;-68
2022/01/28 09:54:31;;;;;;;;;;;;;;;-6.21;91.60;100139.66;5113977;28;19931;-68
2022/01/28 09:57:00;;;;;;;;;;;;;;;-6.15;92.39;100137.97;5114114;28;19930;-68
2022/01/28 09:59:27;;;;;;;;;;;;;;;-5.85;91.09;100136.34;5114291;28;19928;-68
2022/01/28 10:01:54;;;;;;;;;;;;;;;-5.93;91.28;100145.63;5113889;28;19924;-67
2022/01/28 10:04:21;;;;;;;;;;;;;;;-5.91;91.50;100138.84;5114040;28;19924;-68
2022/01/28 10:06:48;;;;;;;;;;;;;;;-5.71;90.90;100141.44;5113872;28;19924;-68
2022/01/28 10:09:16;;;;;;;;;;;;;;;-5.72;90.42;100139.75;5113844;28;19924;-67
2022/01/28 10:11:45;;;;;;;;;;;;;;;-5.80;90.93;100146.50;5113629;28;19923;-68
2022/01/28 10:14:15;;;;;;;;;;;;;;;-5.97;91.65;100149.84;5113748;28;19928;-67
2022/01/28 10:16:43;;;;;;;;;;;;;;;-6.05;92.68;100155.75;5113162;28;19923;-67
2022/01/28 10:19:10;;;;;;;;;;;;;;;-6.09;93.24;100156.56;5113520;28;19935;-68
2022/01/28 10:21:38;;;;;;;;;;;;;;;-6.28;94.66;100160.75;5113273;28;20026;-68
2022/01/28 10:24:06;;;;;;;;;;;;;;;-6.06;93.46;100152.38;5113674;28;19931;-68
2022/01/28 10:26:34;;;;;;;;;;;;;;;-6.10;93.91;100162.50;5113843;28;19923;-68
2022/01/28 10:29:01;;;;;;;;;;;;;;;-5.93;94.26;100159.13;5113455;28;20408;-67
2022/01/28 10:31:36;;;;;;;;;;;;;;;-5.90;93.93;100155.75;5113560;28;19928;-67
2022/01/28 10:34:09;;;;;;;;;;;;;;;-6.02;94.49;100150.69;5113591;28;20027;-68
2022/01/28 10:36:36;;;;;;;;;;;;;;;-6.26;96.03;100164.13;5113396;28;19924;-67
2022/01/28 10:39:03;;;;;;;;;;;;;;;-6.03;94.64;100157.44;5113357;28;19924;-67
2022/01/28 10:41:29;;;;;;;;;;;;;;;-5.91;94.44;100164.19;5113339;28;20347;-67
2022/01/28 10:43:56;;;;;;;;;;;;;;;-5.95;94.76;100165.91;5113033;28;19933;-67
2022/01/28 10:46:23;;;;;;;;;;;;;;;-6.00;94.97;100175.19;5113185;28;19924;-67
2022/01/28 10:48:53;;;;;;;;;;;;;;;-5.97;95.12;100172.66;5113270;28;20312;-67
2022/01/28 10:51:21;;;;;;;;;;;;;;;-5.82;94.58;100170.97;5113183;28;19928;-67
2022/01/28 10:54:03;;;;;;;;;;;;;;;-5.85;94.48;100169.28;5113384;28;19924;-68
2022/01/28 10:56:30;;;;;;;;;;;;;;;-5.77;93.98;100167.63;5113002;28;19947;-68
2022/01/28 10:58:57;;;;;;;;;;;;;;;-5.92;95.35;100175.19;5113093;28;19931;-68
2022/01/28 11:01:24;;;;;;;;;;;;;;;-5.77;94.63;100181.97;5112656;28;19924;-67
2022/01/28 11:03:52;;;;;;;;;;;;;;;-5.62;93.96;100178.63;5112960;28;20293;-68
2022/01/28 11:06:19;;;;;;;;;;;;;;;-5.77;94.77;100185.34;5113027;28;19945;-67
2022/01/28 11:08:45;;;;;;;;;;;;;;;-5.61;93.99;100176.09;5113213;28;19924;-67
2022/01/28 11:11:12;;;;;;;;;;;;;;;-5.69;94.66;100182.84;5112564;28;19924;-68
2022/01/28 11:13:39;;;;;;;;;;;;;;;-5.60;93.60;100176.94;5112985;28;19924;-68
2022/01/28 11:16:06;;;;;;;;;;;;;;;-5.60;93.64;100182.00;5113192;28;19969;-68
2022/01/28 11:18:33;;;;;;;;;;;;;;;-5.40;93.02;100187.09;5112537;28;19930;-68
2022/01/28 11:21:05;;;;;;;;;;;;;;;-5.59;93.23;100186.25;5113123;28;19932;-68
2022/01/28 11:23:36;;;;;;;;;;;;;;;-5.40;92.64;100197.25;5112949;28;19946;-68
2022/01/28 11:26:16;;;;;;;;;;;;;;;-5.40;92.16;100202.31;5112709;28;20378;-68
2022/01/28 11:28:44;;;;;;;;;;;;;;;-5.43;93.22;100200.63;5112233;28;20370;-68
2022/01/28 11:31:11;;;;;;;;;;;;;;;-5.58;93.34;100206.50;5113111;28;19924;-67
2022/01/28 11:33:49;;;;;;;;;;;;;;;-5.52;92.88;100209.06;5114915;28;19977;-67
2022/01/28 11:36:30;;;;;;;;;;;;;;;-5.35;92.73;100220.91;5116968;28;19931;-69
2022/01/28 11:38:57;;;;;;;;;;;;;;;-5.51;92.42;100223.41;5116472;28;19923;-69
2022/01/28 11:41:25;;;;;;;;;;;;;;;-5.53;92.71;100222.56;5116532;28;19974;-67
2022/01/28 11:43:52;;;;;;;;;;;;;;;-5.80;94.52;100230.13;5116941;28;19955;-69
2022/01/28 11:46:23;;;;;;;;;;;;;;;-5.78;94.08;100231.81;5116817;28;19924;-68
2022/01/28 11:49:17;;;;;;;;;;;;;;;-5.59;93.18;100227.63;5116777;28;19930;-68
2022/01/28 11:51:45;;;;;;;;;;;;;;;-5.47;93.40;100224.28;5116455;28;19928;-68
2022/01/28 11:54:12;;;;;;;;;;;;;;;-5.64;93.76;100226.78;5116281;28;20334;-68
2022/01/28 11:56:39;;;;;;;;;;;;;;;-5.81;94.49;100221.66;5116374;28;20260;-69
2022/01/28 11:59:07;;;;;;;;;;;;;;;-5.83;94.74;100220.81;5116227;28;19924;-68
2022/01/28 12:01:49;;;;;;;;;;;;;;;-5.72;94.53;100221.69;5116586;28;19973;-68
2022/01/28 12:04:35;;;;;;;;;;;;;;;-5.43;93.64;100220.06;5095268;28;20290;-68
2022/01/28 12:07:03;;;;;;;;;;;;;;;-5.95;95.30;100234.31;5116060;28;19930;-68
2022/01/28 12:09:31;;;;;;;;;;;;;;;-5.76;94.76;100236.88;5115946;28;20314;-67
2022/01/28 12:11:58;;;;;;;;;;;;;;;-5.98;95.13;100229.25;5115820;28;20370;-69
2022/01/28 12:17:36;;;;;;;;;;;;;;;-5.95;95.41;100224.19;5074327;28;19924;-68
2022/01/28 12:20:13;;;;;;;;;;;;;;;-6.01;95.40;100239.38;5075288;28;20019;-68
2022/01/28 12:22:54;;;;;;;;;;;;;;;-6.03;95.66;100243.56;5075145;28;19931;-68
2022/01/28 12:25:35;;;;;;;;;;;;;;;-5.92;95.13;100249.47;5074311;28;20397;-68
2022/01/28 12:28:12;;;;;;;;;;;;;;;-5.95;95.17;100261.34;5074262;28;19932;-67
2022/01/28 12:30:39;;;;;;;;;;;;;;;-5.98;94.99;100253.72;5075213;28;19935;-68
2022/01/28 12:33:06;;;;;;;;;;;;;;;-5.97;94.91;100255.41;5074847;28;19929;-67
2022/01/28 12:35:32;;;;;;;;;;;;;;;-6.23;96.12;100261.19;5074919;28;19925;-69
2022/01/28 12:38:02;;;;;;;;;;;;;;;-6.06;95.67;100263.81;5075142;28;19932;-69
2022/01/28 12:40:35;;;;;;;;;;;;;;;-6.02;95.14;100264.69;5075046;28;19924;-68
2022/01/28 12:43:01;;;;;;;;;;;;;;;-5.93;94.96;100257.09;5074837;28;20015;-66
2022/01/28 12:45:30;;;;;;;;;;;;;;;-6.04;95.79;100258.75;5074485;28;20006;-68
2022/01/28 12:47:56;;;;;;;;;;;;;;;-6.08;95.82;100259.59;5074848;28;19924;-67
2022/01/28 12:50:24;;;;;;;;;;;;;;;-5.80;94.39;100263.91;5075099;28;19947;-67
2022/01/28 12:52:51;;;;;;;;;;;;;;;-5.94;94.79;100265.56;5075231;28;20291;-69
2022/01/28 12:55:17;;;;;;;;;;;;;;;-5.82;94.42;100267.28;5074595;28;19924;-66
2022/01/28 12:57:45;;;;;;;;;;;;;;;-5.88;94.31;100267.22;5074866;28;19924;-65
2022/01/28 13:00:12;;;;;;;;;;;;;;;-6.04;94.27;100268.88;5074322;28;19932;-68
2022/01/28 13:02:41;;;;;;;;;;;;;;;-5.87;94.06;100276.53;5074219;28;19931;-69
2022/01/28 13:05:15;;;;;;;;;;;;;;;-6.06;94.74;100280.69;5074363;28;20377;-69
2022/01/28 13:10:27;;;;;;;;;;;;;;;-6.15;95.24;100286.56;5074627;28;19931;-68
2022/01/28 13:13:02;;;;;;;;;;;;;;;-6.14;94.80;100285.72;5074520;28;20279;-68
2022/01/28 13:15:29;;;;;;;;;;;;;;;-6.20;94.71;100286.53;5074577;28;19924;-68
2022/01/28 13:17:58;;;;;;;;;;;;;;;-6.25;95.11;100289.88;5074305;28;19925;-68
2022/01/28 13:20:25;;;;;;;;;;;;;;;-6.16;95.66;100295.84;5074433;28;19924;-65
2022/01/28 13:22:53;;;;;;;;;;;;;;;-6.28;95.35;100297.47;5074120;28;19932;-67
2022/01/28 13:25:21;;;;;;;;;;;;;;;-6.27;95.50;100300.00;5073844;28;19973;-67
2022/01/28 13:27:55;;;;;;;;;;;;;;;-6.12;94.10;100306.84;5073902;28;20283;-68
2022/01/28 13:30:22;;;;;;;;;;;;;;;-6.01;94.20;100309.41;5073973;28;19925;-68
2022/01/28 13:32:49;;;;;;;;;;;;;;;-5.97;93.67;100306.06;5074094;28;19935;-64
2022/01/28 13:35:18;;;;;;;;;;;;;;;-6.02;92.99;100316.19;5073933;28;19982;-67
2022/01/28 13:37:46;;;;;;;;;;;;;;;-6.04;92.29;100320.38;5073949;28;19932;-67
2022/01/28 13:40:28;;;;;;;;;;;;;;;-6.23;93.61;100324.50;5073603;28;20282;-67
2022/01/28 13:42:59;;;;;;;;;;;;;;;-6.08;92.94;100320.38;5074140;28;19925;-68
2022/01/28 13:45:29;;;;;;;;;;;;;;;-6.18;93.21;100338.03;5073801;28;19924;-67
2022/01/28 13:47:56;;;;;;;;;;;;;;;-6.37;93.68;100315.94;5073716;28;19925;-67